Station: ELLX - 19/08/2018 02:20Z (il y a 6 minutes)
ELLX 190220Z AUTO 35008KT 9999 NCD 15/12 Q1023 NOSIG
Vent du 350º - 8 kt
Visibilité > 10 km
Pas de nuages détectés
Température: +15ºC - Point de rosée: +12ºC - QNH: 1023 hPa
Pas de changement significatif prévu dans les 2 heures qui suivent l'observation